• Join FlightAware (Why Join?)
  • Login
  • US Flag 
04:55AM EDT


 

Airport Tracker/Info


-or-


 

Live Flight TrackerFlight Track Log ✈ GJS6253 ✈ 19-Aug-2013 ✈ KCVG - KLGA

Flight Track Log - Related Links

Times and Time Zones

All times are in EDT time to prevent confusion due to time zone crossing. See the GJS6253 flight status page for this flight to view local times or setup timezone preferences in your user account.

Time Position Orientation Groundspeed Altitude Reporting Facility
EDT Latitude Longitude Course Direction KTS MPH feet Rate Location/Type
08:17PM 39.0500 -84.6833 322° Northwest 159 183 1,500  Level Cincinnati TRACON
08:18PM 39.0833 -84.7167 322° Northwest 193 222 3,600 1,740 Climbing Cincinnati TRACON
08:19PM 39.1267 -84.6953 21° North 267 307 4,900 2,100 Climbing Indianapolis Center
08:20PM 39.1869 -84.6536 28° Northeast 261 300 7,600 2,580 Climbing Indianapolis Center
08:21PM 39.2578 -84.6056 28° Northeast 282 325 10,200 2,100 Climbing Indianapolis Center
08:22PM 39.3536 -84.5425 27° Northeast 324 373 11,900 1,860 Climbing Indianapolis Center
08:23PM 39.4444 -84.4819 27° Northeast 362 417 14,100 2,100 Climbing Indianapolis Center
08:24PM 39.5331 -84.4192 29° Northeast 360 414 16,300 1,800 Climbing Indianapolis Center
08:25PM 39.6186 -84.3392 36° Northeast 376 433 17,900 1,560 Climbing Indianapolis Center
08:26PM 39.7025 -84.2533 38° Northeast 378 435 19,500 1,500 Climbing Indianapolis Center
08:27PM 39.7903 -84.1622 39° Northeast 396 456 21,000 1,440 Climbing Indianapolis Center
08:28PM 39.8764 -84.0642 41° Northeast 406 467 22,500 1,440 Climbing Indianapolis Center
08:29PM 39.9600 -83.9600 44° Northeast 410 472 24,000 1,260 Climbing Indianapolis Center
08:30PM 40.0464 -83.8539 43° Northeast 421 484 25,200 1,080 Climbing Indianapolis Center
08:31PM 40.1347 -83.7419 44° Northeast 433 498 26,300 1,020 Climbing Indianapolis Center
08:32PM 40.2239 -83.6283 44° Northeast 441 507 27,400 1,080 Climbing Indianapolis Center
08:33PM 40.3158 -83.5136 44° Northeast 448 516 28,600 1,020 Climbing Indianapolis Center
08:34PM 40.4067 -83.3989 44° Northeast 449 517 29,500 780 Climbing Indianapolis Center
08:35PM 40.4992 -83.2800 44° Northeast 460 529 30,200 660 Climbing Indianapolis Center
08:36PM 40.5942 -83.1575 44° Northeast 466 536 30,900 720 Climbing Indianapolis Center
08:37PM 40.7047 -83.0147 44° Northeast 471 542 31,700 780 Climbing Indianapolis Center
08:38PM 40.7867 -82.8769 52° Northeast 473 544 32,500 720 Climbing Indianapolis Center
08:39PM 40.8200 -82.7033 76° East 488 562 33,200 660 Climbing Indianapolis Center
08:40PM 40.8394 -82.5281 82° East 483 556 33,900 780 Climbing Indianapolis Center
08:41PM 40.8575 -82.3536 82° East 478 550 34,900 960 Climbing Indianapolis Center
08:42PM 40.8756 -82.1808 82° East 473 544 35,900 1,020 Climbing Indianapolis Center
08:43PM 40.8850 -82.0744 83° East 473 544 36,600 840 Climbing Cleveland Center
08:44PM 40.8972 -81.9264 84° East 460 529 37,300 660 Climbing Cleveland Center
08:45PM 40.9117 -81.7592 83° East 460 529 38,000 600 Climbing Cleveland Center
08:46PM 40.9172 -81.5942 87° East 455 524 38,500 480 Climbing Cleveland Center
08:47PM 40.9208 -81.4239 88° East 455 524 39,000 240 Climbing Cleveland Center
08:48PM 40.9239 -81.2564 89° East 455 524 39,000  Level Cleveland Center
08:49PM 40.9417 -81.0917 82° East 460 529 39,000  Level Cleveland Center
08:50PM 40.9653 -80.9047 80° East 466 536 39,000  Level Cleveland Center
08:51PM 40.9822 -80.7344 82° East 466 536 39,000  Level Cleveland Center
08:52PM 40.9989 -80.5611 83° East 466 536 39,000  Level Cleveland Center
08:53PM 41.0175 -80.3878 82° East 466 536 39,000  Level Cleveland Center
08:54PM 41.0339 -80.2336 82° East 466 536 39,000  Level Cleveland Center
08:55PM 41.0478 -80.0600 84° East 466 536 39,000  Level Cleveland Center
08:56PM 41.0636 -79.8864 83° East 471 542 39,000  Level Cleveland Center
08:57PM 41.0811 -79.7128 82° East 471 542 39,000 -360 Level Cleveland Center
08:58PM 41.0964 -79.5417 83° East 471 542 38,300 -780 Descending Cleveland Center
08:59PM 41.1114 -79.3817 83° East 458 527 37,500 -900 Descending Cleveland Center
09:00PM 41.1261 -79.2047 84° East 446 513 36,600 -900 Descending Cleveland Center
09:01PM 41.1408 -79.0364 83° East 446 513 35,800 -780 Descending Cleveland Center
09:02PM 41.1553 -78.8844 83° East 451 519 35,100 -780 Descending Cleveland Center
09:03PM 41.1692 -78.7156 84° East 457 526 34,300 -840 Descending Cleveland Center
09:04PM 41.1831 -78.5497 84° East 457 526 33,500 -660 Descending Cleveland Center
09:05PM 41.2006 -78.3439 83° East 476 548 33,000 -240 Descending New York Center
09:06PM 41.2111 -78.1767 85° East 470 541 33,000  Level New York Center
09:07PM 41.1969 -78.0014 96° East 470 541 33,000  Level New York Center
09:08PM 41.1764 -77.8256 99° East 476 548 33,000 -540 Level New York Center
09:09PM 41.1531 -77.6522 100° East 481 554 32,000 -1,440 Descending New York Center
09:10PM 41.1300 -77.4761 100° East 481 554 30,200 -1,740 Descending New York Center
09:11PM 41.1075 -77.3169 101° East 481 554 28,600 -1,740 Descending New York Center
09:12PM 41.0856 -77.1469 100° East 481 554 26,800 -1,860 Descending New York Center
09:13PM 41.0631 -76.9822 100° East 462 532 24,900 -1,800 Descending New York Center
09:14PM 41.0419 -76.8264 100° East 447 514 23,200 -1,800 Descending New York Center
09:15PM 41.0206 -76.6731 100° East 433 498 21,300 -1,800 Descending New York Center
09:16PM 40.9861 -76.5272 107° East 422 486 19,600 -1,680 Descending New York Center
09:17PM 40.9553 -76.3844 106° East 408 470 18,000 -840 Descending New York Center
09:18PM 40.9222 -76.2469 108° East 397 457 18,000 -660 Level New York Center
09:19PM 40.8853 -76.0958 108° East 392 451 16,700 -1,260 Descending New York Center
09:20PM 40.8608 -75.9897 107° East 387 445 15,500 -1,440 Descending New York Center
09:21PM 40.8233 -75.8469 109° East 382 440 13,900 -1,260 Descending New York Center
09:22PM 40.7914 -75.7183 108° East 376 433 13,000 -480 Descending New York Center
09:23PM 40.7556 -75.5761 108° East 370 426 13,000 -300 Level New York Center
09:24PM 40.7250 -75.4508 108° East 375 432 12,400 -780 Descending New York Center
09:25PM 40.7011 -75.3206 104° East 370 426 11,500 -900 Descending New York Center
09:26PM 40.6747 -75.1928 105° East 370 426 10,600 -780 Descending New York Center
09:27PM 40.6222 -75.0883 123° Southeast 350 403 10,000 -300 Descending New York Center
09:28PM 40.5633 -74.9889 128° Southeast 350 403 10,000  Level New York Center
09:29PM 40.5317 -74.8806 111° Southeast 350 403 10,000  Level New York Center
09:29PM 40.5000 -74.8000 117° Southeast 353 406 10,000  Level New York TRACON
09:30PM 40.4667 -74.6833 111° Southeast 355 409 10,000  Level New York TRACON
09:31PM 40.4333 -74.5667 111° Southeast 351 404 10,000  Level New York TRACON
09:32PM 40.4500 -74.4500 79° East 336 387 10,000 -660 Level New York TRACON
09:33PM 40.4833 -74.3500 66° East 288 331 8,700 -1,440 Descending New York TRACON
09:34PM 40.5000 -74.2500 78° East 282 325 7,200 -900 Descending New York TRACON
09:35PM 40.5333 -74.1500 66° East 284 327 7,000 -480 Descending New York TRACON
09:37PM 40.5833 -74.0500 57° Northeast 276 318 6,200 -960 Descending New York TRACON
09:38PM 40.6333 -74.0000 37° Northeast 268 308 5,000 -1,200 Descending New York TRACON
09:38PM 40.7000 -73.9500 30° Northeast 259 298 4,000 -540 Descending New York TRACON
09:40PM 40.7333 -73.8500 66° East 266 306 4,000  Level New York TRACON
09:40PM 40.7667 -73.7833 57° Northeast 272 313 4,000 -720 Level New York TRACON
09:41PM 40.8333 -73.7333 30° Northeast 258 297 2,700 -1,020 Descending New York TRACON
09:42PM 40.8833 -73.7667 333° Northwest 223 257 2,000 -600 Descending New York TRACON
09:43PM 40.8500 -73.8167 229° Southwest 173 199 1,500 -480 Descending New York TRACON
09:44PM 40.8167 -73.8500 217° Southwest 149 171 1,100 -420 Descending New York TRACON
09:46PM 40.7772 -73.8726 237° Southwest  Level Estimated
09:53PM 40.7772 -73.8726 237° Southwest  Level Estimated
09:54PM 40.7772 -73.8726 237° Southwest  Level Estimated
09:55PM 40.7772 -73.8726 237° Southwest  Level Estimated
09:56PM 40.7772 -73.8726 237° Southwest  Level Estimated